createdAt,value
2019-03-04T00:02:00.899Z,21.10
2019-03-04T00:04:28.682Z,21.10
2019-03-04T00:06:56.794Z,21.10
2019-03-04T00:09:24.570Z,21.10
2019-03-04T00:11:52.377Z,21.10
2019-03-04T00:14:20.158Z,21.10
2019-03-04T00:16:48.275Z,21.10
2019-03-04T00:19:16.082Z,21.10
2019-03-04T00:21:43.875Z,21.10
2019-03-04T00:24:11.662Z,21.10
2019-03-04T00:26:39.462Z,21.10
2019-03-04T00:29:07.259Z,21.10
2019-03-04T00:31:35.054Z,21.10
2019-03-04T00:34:02.858Z,21.00
2019-03-04T00:36:30.720Z,21.10
2019-03-04T00:38:58.554Z,21.00
2019-03-04T00:41:26.482Z,21.00
2019-03-04T00:43:54.283Z,21.10
2019-03-04T00:46:22.080Z,21.00
2019-03-04T00:48:49.868Z,21.00
2019-03-04T00:51:17.655Z,21.00
2019-03-04T00:53:45.431Z,21.00
2019-03-04T00:56:13.238Z,21.00
2019-03-04T00:58:41.043Z,21.00
2019-03-04T01:01:08.826Z,21.00
2019-03-04T01:03:36.619Z,21.00
2019-03-04T01:06:04.406Z,21.00
2019-03-04T01:08:32.201Z,21.00
2019-03-04T01:11:00.006Z,21.00
2019-03-04T01:13:27.786Z,21.00
2019-03-04T01:15:55.593Z,21.00
2019-03-04T01:18:23.383Z,21.00
2019-03-04T01:20:51.194Z,21.00
2019-03-04T01:23:18.988Z,21.00
2019-03-04T01:25:46.799Z,21.00
2019-03-04T01:28:14.599Z,21.00
2019-03-04T01:30:42.455Z,20.90
2019-03-04T01:33:10.238Z,20.90
2019-03-04T01:35:38.051Z,20.90
2019-03-04T01:38:05.853Z,20.90
2019-03-04T01:40:33.694Z,20.90
2019-03-04T01:43:01.487Z,20.90
2019-03-04T01:45:29.291Z,20.90
2019-03-04T01:47:57.075Z,20.90
2019-03-04T01:50:24.893Z,20.90
2019-03-04T01:52:52.682Z,20.90
2019-03-04T01:55:20.482Z,20.90
2019-03-04T01:57:48.337Z,20.90
2019-03-04T02:00:16.870Z,20.80
2019-03-04T02:02:44.667Z,20.80
2019-03-04T02:05:12.456Z,20.80
2019-03-04T02:07:40.247Z,20.80
2019-03-04T02:10:09.063Z,20.80
2019-03-04T02:12:36.853Z,20.80
2019-03-04T02:15:04.798Z,20.80
2019-03-04T02:17:32.582Z,20.80
2019-03-04T02:20:00.392Z,20.80
2019-03-04T02:22:28.162Z,20.80
2019-03-04T02:24:55.967Z,20.80
2019-03-04T02:27:23.754Z,20.80
2019-03-04T02:29:51.546Z,20.80
2019-03-04T02:32:19.338Z,20.80
2019-03-04T02:34:47.123Z,20.80
2019-03-04T02:37:15.058Z,20.80
2019-03-04T02:39:42.896Z,20.70
2019-03-04T02:42:10.747Z,20.70
2019-03-04T02:44:38.567Z,20.70
2019-03-04T02:47:06.371Z,20.70
2019-03-04T02:49:34.171Z,20.70
2019-03-04T02:52:01.967Z,20.70
2019-03-04T02:54:29.767Z,20.70
2019-03-04T02:56:57.577Z,20.70
2019-03-04T02:59:25.363Z,20.70
2019-03-04T03:01:53.173Z,20.70
2019-03-04T03:04:20.955Z,20.70
2019-03-04T03:06:48.767Z,20.70
2019-03-04T03:09:16.564Z,20.70
2019-03-04T03:11:44.367Z,20.70
2019-03-04T03:14:12.151Z,20.60
2019-03-04T03:16:39.953Z,20.60
2019-03-04T03:19:07.755Z,20.60
2019-03-04T03:21:35.554Z,20.70
2019-03-04T03:24:03.382Z,20.70
2019-03-04T03:26:31.196Z,20.60
2019-03-04T03:28:58.976Z,20.60
2019-03-04T03:31:26.788Z,20.60
2019-03-04T03:33:54.572Z,20.60
2019-03-04T03:36:22.464Z,20.60
2019-03-04T03:38:50.253Z,20.60
2019-03-04T03:41:18.041Z,20.60
2019-03-04T03:43:45.839Z,20.60
2019-03-04T03:46:13.619Z,20.60
2019-03-04T03:48:41.412Z,20.60
2019-03-04T03:51:09.207Z,20.60
2019-03-04T03:53:37.000Z,20.60
2019-03-04T03:56:04.821Z,20.60
2019-03-04T03:58:32.604Z,20.60
2019-03-04T04:01:00.390Z,20.60
2019-03-04T04:03:28.187Z,20.60
2019-03-04T04:05:55.967Z,20.60
2019-03-04T04:08:23.863Z,20.60
2019-03-04T04:10:51.661Z,20.60
2019-03-04T04:13:19.446Z,20.60
2019-03-04T04:15:47.403Z,20.60
2019-03-04T04:18:15.309Z,20.60
2019-03-04T04:20:43.108Z,20.60
2019-03-04T04:23:10.905Z,20.60
2019-03-04T04:25:38.678Z,20.60
2019-03-04T04:28:08.822Z,20.60
2019-03-04T04:30:36.986Z,20.60
2019-03-04T04:33:04.774Z,20.60
2019-03-04T04:35:32.558Z,20.60
2019-03-04T04:38:00.373Z,20.60
2019-03-04T04:40:28.166Z,20.60
2019-03-04T04:42:56.086Z,20.60
2019-03-04T04:45:23.885Z,20.60
2019-03-04T04:47:51.695Z,20.60
2019-03-04T04:50:19.555Z,20.60
2019-03-04T04:52:47.350Z,20.60
2019-03-04T04:55:15.141Z,20.60
2019-03-04T04:57:42.961Z,20.50
2019-03-04T05:00:11.639Z,20.50
2019-03-04T05:02:39.452Z,20.50
2019-03-04T05:05:07.475Z,20.50
2019-03-04T05:07:35.272Z,20.60
2019-03-04T05:10:03.626Z,20.70
2019-03-04T05:12:31.427Z,20.70
2019-03-04T05:14:59.211Z,20.80
2019-03-04T05:17:27.009Z,20.80
2019-03-04T05:19:54.797Z,20.80
2019-03-04T05:22:22.578Z,20.80
2019-03-04T05:24:50.363Z,20.80
2019-03-04T05:27:18.147Z,20.70
2019-03-04T05:29:46.115Z,20.70
2019-03-04T05:32:14.069Z,20.70
2019-03-04T05:34:41.860Z,20.70
2019-03-04T05:37:09.663Z,20.70
2019-03-04T05:39:37.455Z,20.70
2019-03-04T05:42:05.366Z,20.70
2019-03-04T05:44:33.167Z,20.70
2019-03-04T05:47:00.955Z,20.70
2019-03-04T05:49:28.742Z,20.80
2019-03-04T05:51:56.541Z,20.80
2019-03-04T05:54:24.345Z,20.80
2019-03-04T05:56:52.122Z,20.80
2019-03-04T05:59:20.247Z,20.80
2019-03-04T06:02:07.515Z,20.80
2019-03-04T06:04:35.371Z,20.80
2019-03-04T06:07:09.507Z,20.90
2019-03-04T06:09:37.290Z,20.90
2019-03-04T06:12:05.075Z,20.90
2019-03-04T06:14:32.868Z,21.00
2019-03-04T06:17:00.762Z,21.00
2019-03-04T06:19:28.547Z,20.90
2019-03-04T06:21:56.337Z,21.00
2019-03-04T06:24:24.233Z,21.00
2019-03-04T06:26:52.188Z,21.00
2019-03-04T06:29:19.994Z,21.00
2019-03-04T06:31:47.863Z,21.00
2019-03-04T06:34:15.675Z,21.00
2019-03-04T06:36:43.476Z,21.00
2019-03-04T06:39:11.304Z,21.10
2019-03-04T06:41:39.217Z,21.00
2019-03-04T06:44:07.057Z,21.00
2019-03-04T06:46:34.846Z,21.00
2019-03-04T06:49:02.669Z,21.10
2019-03-04T06:51:43.939Z,21.10
2019-03-04T06:54:43.467Z,21.10
2019-03-04T06:57:28.386Z,21.10
2019-03-04T07:00:09.428Z,21.10
2019-03-04T07:02:37.344Z,21.10
2019-03-04T07:05:16.292Z,21.10
2019-03-04T07:07:44.110Z,21.20
2019-03-04T07:10:11.946Z,21.20
2019-03-04T07:12:40.026Z,21.20
2019-03-04T07:15:07.891Z,21.10
2019-03-04T07:17:35.749Z,21.10
2019-03-04T07:20:08.923Z,21.10
2019-03-04T07:22:36.726Z,21.10
2019-03-04T07:25:04.766Z,21.10
2019-03-04T07:27:32.563Z,21.10
2019-03-04T07:30:00.405Z,21.10
2019-03-04T07:32:28.187Z,21.10
2019-03-04T07:34:56.066Z,21.10
2019-03-04T07:37:43.144Z,21.10
2019-03-04T07:40:10.959Z,21.20
2019-03-04T07:42:38.747Z,21.20
2019-03-04T07:45:07.152Z,21.20
2019-03-04T07:47:34.943Z,21.20
2019-03-04T07:50:02.746Z,21.20
2019-03-04T07:52:30.607Z,21.20
2019-03-04T07:54:58.412Z,21.20
2019-03-04T07:57:26.282Z,21.20
2019-03-04T07:59:54.107Z,21.20
2019-03-04T08:02:21.867Z,21.30
2019-03-04T08:04:49.655Z,21.30
2019-03-04T08:07:37.148Z,21.30
2019-03-04T08:10:11.211Z,21.30
2019-03-04T08:12:44.471Z,21.30
2019-03-04T08:15:12.288Z,21.30
2019-03-04T08:17:40.101Z,21.30
2019-03-04T08:20:09.215Z,21.30
2019-03-04T08:22:37.006Z,21.30
2019-03-04T08:25:05.245Z,21.30
2019-03-04T08:27:33.059Z,21.30
2019-03-04T08:30:00.853Z,21.30
2019-03-04T08:32:28.646Z,21.30
2019-03-04T08:34:56.436Z,21.30
2019-03-04T08:37:24.230Z,21.30
2019-03-04T08:39:52.191Z,21.40
2019-03-04T08:42:19.974Z,21.40
2019-03-04T08:44:47.771Z,21.40
2019-03-04T08:47:15.559Z,21.40
2019-03-04T08:49:43.363Z,21.40
2019-03-04T08:52:11.170Z,21.40
2019-03-04T08:54:38.991Z,21.40
2019-03-04T08:57:06.788Z,21.40
2019-03-04T08:59:34.584Z,21.40
2019-03-04T09:02:02.387Z,21.40
2019-03-04T09:04:30.211Z,21.40
2019-03-04T09:06:58.000Z,21.40
2019-03-04T09:09:25.809Z,21.40
2019-03-04T09:11:53.638Z,21.40
2019-03-04T09:14:21.443Z,21.40
2019-03-04T09:16:49.229Z,21.40
2019-03-04T09:19:17.047Z,21.40
2019-03-04T09:21:44.852Z,21.40
2019-03-04T09:24:12.642Z,21.40
2019-03-04T09:26:40.442Z,21.40
2019-03-04T09:29:08.384Z,21.40
2019-03-04T09:31:36.239Z,21.40
2019-03-04T09:34:04.061Z,21.50
2019-03-04T09:36:31.857Z,21.50
2019-03-04T09:38:59.675Z,21.50
2019-03-04T09:41:27.459Z,21.50
2019-03-04T09:43:55.246Z,21.50
2019-03-04T09:46:23.043Z,21.50
2019-03-04T09:48:50.841Z,21.50
2019-03-04T09:51:24.335Z,21.50
2019-03-04T09:53:48.150Z,21.50
2019-03-04T09:56:15.964Z,21.50
2019-03-04T09:58:43.761Z,21.50
2019-03-04T10:01:30.854Z,21.50
2019-03-04T10:04:20.975Z,21.50
2019-03-04T10:07:03.829Z,21.50
2019-03-04T10:09:51.059Z,21.50
2019-03-04T10:12:37.114Z,21.50
2019-03-04T10:15:09.278Z,21.50
2019-03-04T10:17:50.022Z,21.50
2019-03-04T10:20:37.136Z,21.50
2019-03-04T10:23:17.098Z,21.50
2019-03-04T10:25:48.649Z,21.60
2019-03-04T10:28:42.134Z,21.60
2019-03-04T10:31:28.105Z,21.60
2019-03-04T10:34:12.062Z,21.60
2019-03-04T10:36:54.762Z,21.60
2019-03-04T10:39:40.666Z,21.60
2019-03-04T10:42:26.821Z,21.60
2019-03-04T10:45:08.642Z,21.70
2019-03-04T10:47:36.442Z,21.70
2019-03-04T10:50:04.450Z,21.70
2019-03-04T10:52:32.229Z,21.70
2019-03-04T10:55:00.036Z,21.70
2019-03-04T10:57:27.822Z,21.70
2019-03-04T10:59:55.607Z,21.70
2019-03-04T11:02:23.386Z,21.70
2019-03-04T11:04:51.174Z,21.70
2019-03-04T11:07:19.076Z,21.70
2019-03-04T11:09:46.883Z,21.70
2019-03-04T11:12:14.654Z,21.70
2019-03-04T11:14:42.441Z,21.70
2019-03-04T11:17:10.218Z,21.70
2019-03-04T11:19:38.032Z,21.70
2019-03-04T11:22:05.800Z,21.70
2019-03-04T11:24:33.598Z,21.70
2019-03-04T11:27:01.379Z,21.70
2019-03-04T11:29:29.179Z,21.70
2019-03-04T11:31:57.002Z,21.70
2019-03-04T11:34:24.791Z,21.70
2019-03-04T11:36:52.590Z,21.70
2019-03-04T11:39:42.442Z,21.70
2019-03-04T11:42:10.331Z,21.70
2019-03-04T11:44:38.204Z,21.80
2019-03-04T11:47:06.003Z,21.80
2019-03-04T11:49:33.786Z,21.80
2019-03-04T11:52:01.578Z,21.80
2019-03-04T11:54:29.376Z,21.80
2019-03-04T11:56:57.170Z,21.80
2019-03-04T11:59:25.039Z,21.80
2019-03-04T12:01:52.822Z,21.80
2019-03-04T12:04:20.633Z,21.80
2019-03-04T12:06:48.430Z,21.80
2019-03-04T12:09:16.658Z,21.70
2019-03-04T12:11:44.450Z,21.70
2019-03-04T12:14:12.239Z,21.70
2019-03-04T12:16:40.054Z,21.70
2019-03-04T12:19:07.856Z,21.70
2019-03-04T12:21:35.670Z,21.60
2019-03-04T12:24:03.450Z,21.60
2019-03-04T12:26:31.258Z,21.60
2019-03-04T12:28:59.035Z,21.60
2019-03-04T12:31:30.277Z,21.60
2019-03-04T12:33:58.111Z,21.60
2019-03-04T12:36:25.918Z,21.60
2019-03-04T12:38:53.703Z,21.60
2019-03-04T12:41:21.519Z,21.60
2019-03-04T12:43:49.302Z,21.50
2019-03-04T12:46:17.142Z,21.50
2019-03-04T12:48:44.947Z,21.50
2019-03-04T12:51:22.402Z,21.50
2019-03-04T12:53:42.265Z,21.50
2019-03-04T12:56:10.068Z,21.50
2019-03-04T12:58:37.882Z,21.50
2019-03-04T13:01:05.683Z,21.50
2019-03-04T13:03:33.491Z,21.50
2019-03-04T13:06:01.288Z,21.50
2019-03-04T13:08:29.083Z,21.50
2019-03-04T13:10:56.931Z,21.50
2019-03-04T13:13:24.714Z,21.50
2019-03-04T13:15:53.195Z,21.50
2019-03-04T13:18:20.993Z,21.50
2019-03-04T13:20:48.799Z,21.50
2019-03-04T13:23:16.600Z,21.50
2019-03-04T13:25:44.391Z,21.50
2019-03-04T13:28:12.241Z,21.50
2019-03-04T13:30:40.079Z,21.50
2019-03-04T13:33:08.202Z,21.40
2019-03-04T13:35:36.030Z,21.40
2019-03-04T13:38:03.817Z,21.40
2019-03-04T13:40:31.649Z,21.40
2019-03-04T13:42:59.473Z,21.40
2019-03-04T13:45:27.270Z,21.40
2019-03-04T13:47:55.155Z,21.40
2019-03-04T13:50:23.219Z,21.40
2019-03-04T13:52:51.050Z,21.40
2019-03-04T13:55:19.882Z,21.40
2019-03-04T13:57:48.299Z,21.40
2019-03-04T14:00:16.968Z,21.40
2019-03-04T14:02:45.026Z,21.30
2019-03-04T14:05:12.966Z,21.30
2019-03-04T14:07:40.767Z,21.30
2019-03-04T14:10:09.341Z,21.30
2019-03-04T14:12:37.138Z,21.30
2019-03-04T14:15:05.774Z,21.30
2019-03-04T14:17:33.559Z,21.30
2019-03-04T14:20:01.358Z,21.30
2019-03-04T14:22:29.148Z,21.30
2019-03-04T14:24:56.966Z,21.20
2019-03-04T14:27:24.768Z,21.30
2019-03-04T14:29:52.565Z,21.20
2019-03-04T14:32:20.351Z,21.20
2019-03-04T14:34:48.135Z,21.20
2019-03-04T14:37:16.010Z,21.20
2019-03-04T14:39:43.802Z,21.20
2019-03-04T14:42:11.759Z,21.20
2019-03-04T14:44:39.520Z,21.20
2019-03-04T14:47:07.305Z,21.20
2019-03-04T14:49:44.274Z,21.20
2019-03-04T14:52:04.638Z,21.20
2019-03-04T14:54:32.694Z,21.20
2019-03-04T14:57:00.503Z,21.20
2019-03-04T14:59:28.318Z,21.10
2019-03-04T15:01:56.141Z,21.10
2019-03-04T15:04:23.974Z,21.10
2019-03-04T15:06:51.779Z,21.10
2019-03-04T15:09:19.571Z,21.20
2019-03-04T15:11:47.366Z,21.10
2019-03-04T15:14:15.169Z,21.10
2019-03-04T15:16:43.015Z,21.10
2019-03-04T15:19:10.885Z,21.10
2019-03-04T15:21:38.751Z,21.10
2019-03-04T15:24:06.671Z,21.10
2019-03-04T15:26:42.012Z,21.10
2019-03-04T15:29:04.038Z,21.10
2019-03-04T15:31:31.832Z,21.10
2019-03-04T15:33:59.736Z,21.10
2019-03-04T15:36:27.567Z,21.10
2019-03-04T15:38:55.367Z,21.10
2019-03-04T15:41:23.564Z,21.00
2019-03-04T15:43:51.406Z,21.00
2019-03-04T15:46:19.246Z,21.00
2019-03-04T15:48:47.083Z,21.00
2019-03-04T15:51:14.910Z,21.00
2019-03-04T15:53:43.557Z,21.00
2019-03-04T15:56:11.562Z,21.00
2019-03-04T15:58:39.372Z,21.00
2019-03-04T16:01:08.086Z,21.00
2019-03-04T16:03:36.731Z,21.00
2019-03-04T16:06:04.800Z,21.00
2019-03-04T16:08:32.643Z,21.00
2019-03-04T16:11:00.434Z,21.00
2019-03-04T16:13:28.247Z,21.00
2019-03-04T16:15:56.050Z,21.00
2019-03-04T16:18:23.854Z,21.00
2019-03-04T16:20:51.680Z,21.00
2019-03-04T16:23:19.568Z,21.00
2019-03-04T16:25:47.366Z,21.00
2019-03-04T16:28:16.342Z,21.00
2019-03-04T16:30:45.770Z,21.00
2019-03-04T16:33:13.578Z,20.90
2019-03-04T16:35:41.408Z,21.00
2019-03-04T16:38:09.221Z,21.00
2019-03-04T16:40:37.006Z,21.10
2019-03-04T16:43:04.840Z,21.20
2019-03-04T16:45:32.654Z,21.20
2019-03-04T16:48:00.480Z,21.20
2019-03-04T16:50:28.445Z,21.20
2019-03-04T16:52:56.277Z,21.20
2019-03-04T16:55:24.106Z,21.20
2019-03-04T16:57:51.921Z,21.20
2019-03-04T17:00:20.382Z,21.20
2019-03-04T17:02:48.231Z,21.20
2019-03-04T17:05:16.186Z,21.20
2019-03-04T17:07:43.986Z,21.20
2019-03-04T17:10:11.998Z,21.20
2019-03-04T17:12:39.897Z,21.20
2019-03-04T17:15:08.607Z,21.20
2019-03-04T17:17:36.426Z,21.20
2019-03-04T17:20:04.406Z,21.30
2019-03-04T17:22:32.562Z,21.20
2019-03-04T17:25:00.490Z,21.30
2019-03-04T17:27:28.515Z,21.30
2019-03-04T17:29:56.402Z,21.30
2019-03-04T17:32:24.238Z,21.30
2019-03-04T17:34:52.054Z,21.30
2019-03-04T17:37:20.750Z,21.30
2019-03-04T17:39:48.659Z,21.30
2019-03-04T17:42:16.487Z,21.30
2019-03-04T17:44:44.398Z,21.30
2019-03-04T17:47:12.206Z,21.30
2019-03-04T17:49:40.012Z,21.30
2019-03-04T17:52:07.876Z,21.30
2019-03-04T17:54:35.735Z,21.30
2019-03-04T17:57:03.547Z,21.30
2019-03-04T17:59:31.355Z,21.40
2019-03-04T18:01:59.214Z,21.40
2019-03-04T18:04:27.127Z,21.40
2019-03-04T18:06:55.037Z,21.40
2019-03-04T18:09:23.695Z,21.40
2019-03-04T18:11:51.574Z,21.40
2019-03-04T18:14:19.486Z,21.40
2019-03-04T18:16:47.375Z,21.40
2019-03-04T18:19:15.295Z,21.40
2019-03-04T18:21:43.087Z,21.30
2019-03-04T18:24:10.914Z,21.40
2019-03-04T18:26:46.912Z,21.50
2019-03-04T18:29:30.260Z,21.50
2019-03-04T18:32:26.619Z,21.50
2019-03-04T18:35:19.883Z,21.50
2019-03-04T18:38:01.527Z,21.50
2019-03-04T18:40:43.634Z,21.40
2019-03-04T18:43:33.567Z,21.40
2019-03-04T18:46:14.587Z,21.50
2019-03-04T18:48:55.359Z,21.50
2019-03-04T18:51:23.152Z,21.50
2019-03-04T18:53:51.523Z,21.50
2019-03-04T18:56:22.209Z,21.50
2019-03-04T18:58:48.834Z,21.50
2019-03-04T19:01:16.647Z,21.50
2019-03-04T19:03:44.442Z,21.50
2019-03-04T19:06:12.674Z,21.50
2019-03-04T19:08:40.466Z,21.50
2019-03-04T19:11:08.253Z,21.50
2019-03-04T19:13:36.159Z,21.50
2019-03-04T19:16:04.293Z,21.50
2019-03-04T19:18:32.078Z,21.50
2019-03-04T19:21:00.082Z,21.50
2019-03-04T19:23:27.929Z,21.50
2019-03-04T19:25:55.890Z,21.50
2019-03-04T19:28:23.703Z,21.50
2019-03-04T19:30:51.586Z,21.50
2019-03-04T19:33:19.374Z,21.50
2019-03-04T19:35:47.294Z,21.60
2019-03-04T19:38:15.062Z,21.60
2019-03-04T19:40:42.881Z,21.60
2019-03-04T19:43:10.668Z,21.60
2019-03-04T19:45:38.511Z,21.60
2019-03-04T19:48:06.298Z,21.60
2019-03-04T19:50:34.102Z,21.60
2019-03-04T19:53:02.006Z,21.60
2019-03-04T19:55:29.845Z,21.50
2019-03-04T19:57:57.638Z,21.60
2019-03-04T20:00:27.534Z,21.50
2019-03-04T20:02:55.346Z,21.60
2019-03-04T20:05:23.744Z,21.60
2019-03-04T20:07:51.591Z,21.60
2019-03-04T20:10:19.450Z,21.60
2019-03-04T20:12:47.246Z,21.40
2019-03-04T20:15:17.930Z,20.80
2019-03-04T20:17:45.722Z,20.50
2019-03-04T20:20:13.519Z,20.20
2019-03-04T20:22:41.875Z,20.10
2019-03-04T20:25:09.806Z,20.60
2019-03-04T20:27:37.638Z,21.00
2019-03-04T20:30:05.742Z,21.30
2019-03-04T20:32:33.522Z,21.40
2019-03-04T20:35:01.314Z,21.50
2019-03-04T20:37:29.250Z,21.60
2019-03-04T20:39:57.074Z,21.60
2019-03-04T20:42:25.130Z,21.70
2019-03-04T20:44:52.932Z,21.60
2019-03-04T20:47:20.778Z,21.60
2019-03-04T20:49:48.586Z,21.60
2019-03-04T20:52:16.376Z,21.60
2019-03-04T20:54:44.241Z,21.60
2019-03-04T20:57:12.140Z,21.60
2019-03-04T20:59:40.066Z,21.60
2019-03-04T21:02:07.919Z,21.60
2019-03-04T21:04:35.756Z,21.60
2019-03-04T21:07:03.579Z,21.60
2019-03-04T21:09:31.435Z,21.60
2019-03-04T21:11:59.554Z,21.50
2019-03-04T21:14:27.412Z,21.50
2019-03-04T21:16:55.300Z,21.50
2019-03-04T21:19:23.223Z,21.50
2019-03-04T21:21:52.762Z,21.50
2019-03-04T21:24:20.564Z,21.50
2019-03-04T21:26:49.090Z,21.50
2019-03-04T21:29:29.943Z,21.50
2019-03-04T21:32:11.041Z,21.50
2019-03-04T21:34:57.364Z,21.50
2019-03-04T21:37:33.197Z,21.50
2019-03-04T21:40:03.463Z,21.50
2019-03-04T21:42:33.829Z,21.40
2019-03-04T21:45:20.097Z,21.50
2019-03-04T21:47:59.162Z,21.50
2019-03-04T21:50:38.442Z,21.50
2019-03-04T21:53:14.517Z,21.50
2019-03-04T21:55:45.060Z,21.50
2019-03-04T21:58:12.893Z,21.50
2019-03-04T22:00:41.675Z,21.50
2019-03-04T22:03:20.140Z,21.50
2019-03-04T22:05:50.506Z,21.50
2019-03-04T22:08:17.515Z,21.50
2019-03-04T22:10:45.301Z,21.50
2019-03-04T22:13:13.135Z,21.50
2019-03-04T22:15:40.971Z,21.50
2019-03-04T22:18:08.806Z,21.50
2019-03-04T22:20:36.582Z,21.50
2019-03-04T22:23:04.438Z,21.50
2019-03-04T22:25:32.493Z,21.50
2019-03-04T22:28:00.314Z,21.50
2019-03-04T22:30:28.161Z,21.50
2019-03-04T22:32:56.018Z,21.50
2019-03-04T22:35:23.807Z,21.50
2019-03-04T22:37:51.740Z,21.50
2019-03-04T22:40:19.752Z,21.50
2019-03-04T22:42:47.538Z,21.50
2019-03-04T22:45:16.077Z,21.50
2019-03-04T22:47:44.071Z,21.50
2019-03-04T22:50:12.248Z,21.50
2019-03-04T22:52:40.018Z,21.50
2019-03-04T22:55:09.371Z,21.50
2019-03-04T22:57:37.170Z,21.40
2019-03-04T23:00:16.905Z,21.40
2019-03-04T23:02:54.664Z,21.40
2019-03-04T23:05:15.748Z,21.40
2019-03-04T23:07:45.007Z,21.40
2019-03-04T23:10:32.214Z,21.40
2019-03-04T23:13:19.385Z,21.40
2019-03-04T23:15:48.331Z,21.40
2019-03-04T23:18:16.127Z,21.40
2019-03-04T23:20:44.078Z,21.30
2019-03-04T23:23:11.870Z,21.30
2019-03-04T23:25:39.650Z,21.30
2019-03-04T23:28:07.442Z,21.40
2019-03-04T23:30:35.242Z,21.30
2019-03-04T23:33:03.027Z,21.30
2019-03-04T23:35:30.809Z,21.30
2019-03-04T23:37:58.595Z,21.30
2019-03-04T23:40:26.387Z,21.30
2019-03-04T23:42:54.165Z,21.30
2019-03-04T23:45:22.267Z,21.30
2019-03-04T23:47:50.060Z,21.30
2019-03-04T23:50:18.681Z,21.30
2019-03-04T23:52:46.457Z,21.20
2019-03-04T23:55:14.418Z,21.20
2019-03-04T23:57:42.315Z,21.20
